Time;durP1;ratioP1;P1;durP2;ratioP2;P2;SDS_P1;SDS_P2;PMS_P1;PMS_P2;Temp;Humidity;BMP_temperature;BMP_pressure;BME280_temperature;BME280_humidity;BME280_pressure;Samples;Min_cycle;Max_cycle;Signal;HPM_P1;HPM_P2
2023/04/22 00:01:50;;;;;;;5.05;1.77;;;17.10;99.90;;;;;;4952568;29;20240;-80
2023/04/22 00:04:21;;;;;;;2.70;1.42;;;17.20;99.90;;;;;;4954018;29;20580;-80
2023/04/22 00:06:52;;;;;;;4.05;1.70;;;17.20;99.90;;;;;;4955089;29;20197;-80
2023/04/22 00:09:23;;;;;;;3.00;1.40;;;17.30;99.90;;;;;;4953341;29;20227;-81
2023/04/22 00:11:57;;;;;;;3.53;1.30;;;17.30;99.90;;;;;;4953504;28;20665;-80
2023/04/22 00:14:28;;;;;;;3.92;1.58;;;17.30;99.90;;;;;;4952869;29;20568;-81
2023/04/22 00:17:00;;;;;;;4.57;1.50;;;17.30;99.90;;;;;;4952808;28;20196;-81
2023/04/22 00:19:31;;;;;;;6.15;1.45;;;17.30;99.90;;;;;;4954887;28;20201;-81
2023/04/22 00:22:02;;;;;;;3.72;1.60;;;17.40;99.90;;;;;;4954356;28;20212;-81
2023/04/22 00:24:33;;;;;;;3.05;1.63;;;17.40;99.90;;;;;;4953467;29;20778;-81
2023/04/22 00:27:06;;;;;;;5.07;1.83;;;17.40;99.90;;;;;;4954180;28;20201;-80
2023/04/22 00:29:38;;;;;;;3.47;1.63;;;17.50;99.90;;;;;;4950647;28;20649;-81
2023/04/22 00:32:12;;;;;;;4.78;2.00;;;17.50;99.90;;;;;;4953550;28;20216;-81
2023/04/22 00:34:43;;;;;;;5.88;2.25;;;17.50;99.90;;;;;;4951890;29;20676;-80
2023/04/22 00:37:14;;;;;;;6.30;1.80;;;17.60;99.90;;;;;;4951589;28;20205;-79
2023/04/22 00:39:45;;;;;;;3.97;1.92;;;17.60;99.90;;;;;;4949150;28;20209;-82
2023/04/22 00:42:19;;;;;;;3.58;1.60;;;17.70;99.90;;;;;;4951447;28;20212;-82
2023/04/22 00:44:52;;;;;;;2.95;1.60;;;17.80;99.90;;;;;;4954992;29;20223;-82
2023/04/22 00:47:25;;;;;;;2.65;1.60;;;17.80;99.90;;;;;;4953621;28;20212;-81
2023/04/22 00:49:57;;;;;;;7.60;1.70;;;17.90;99.90;;;;;;4952398;29;20303;-81
2023/04/22 00:52:28;;;;;;;3.22;1.90;;;17.90;99.90;;;;;;4953922;28;20201;-81
2023/04/22 00:54:59;;;;;;;3.85;1.90;;;18.00;99.90;;;;;;4953336;28;20197;-78
2023/04/22 00:57:34;;;;;;;3.40;2.00;;;18.10;99.90;;;;;;4953301;28;20201;-82
2023/04/22 01:00:06;;;;;;;4.57;1.55;;;18.20;99.90;;;;;;4952524;28;20228;-82
2023/04/22 01:02:37;;;;;;;6.10;1.50;;;18.40;99.90;;;;;;4954845;29;20240;-82
2023/04/22 01:05:10;;;;;;;6.18;1.48;;;18.50;99.90;;;;;;4953243;28;20199;-83
2023/04/22 01:07:41;;;;;;;3.85;1.42;;;18.70;99.90;;;;;;4952067;29;20201;-82
2023/04/22 01:10:12;;;;;;;5.43;1.55;;;18.90;99.90;;;;;;4953664;29;20211;-80
2023/04/22 01:12:45;;;;;;;4.43;1.40;;;19.10;99.90;;;;;;4955516;29;20192;-81
2023/04/22 01:15:16;;;;;;;6.72;1.30;;;19.20;99.90;;;;;;4953109;28;20205;-82
2023/04/22 01:17:48;;;;;;;3.05;1.30;;;19.40;99.90;;;;;;4950155;28;20215;-78
2023/04/22 01:20:19;;;;;;;2.80;1.42;;;19.50;99.90;;;;;;4949039;28;20208;-81
2023/04/22 01:22:52;;;;;;;1.95;1.38;;;19.60;99.90;;;;;;4953374;28;20234;-81
2023/04/22 01:25:25;;;;;;;5.70;1.50;;;19.70;99.90;;;;;;4954202;29;20200;-82
2023/04/22 01:27:56;;;;;;;2.58;1.30;;;19.80;99.90;;;;;;4949374;28;20204;-82
2023/04/22 01:30:28;;;;;;;3.58;1.42;;;19.90;99.90;;;;;;4950856;28;20215;-83
2023/04/22 01:32:59;;;;;;;2.03;1.20;;;19.90;99.90;;;;;;4953690;29;20200;-81
2023/04/22 01:35:35;;;;;;;5.32;1.30;;;20.00;99.90;;;;;;4952174;29;20204;-80
2023/04/22 01:38:07;;;;;;;3.83;1.40;;;20.00;99.90;;;;;;4954284;29;20189;-81
2023/04/22 01:40:43;;;;;;;4.70;1.30;;;20.10;99.90;;;;;;4948126;28;20205;-81
2023/04/22 01:43:14;;;;;;;3.90;1.27;;;20.20;99.90;;;;;;4953284;29;20193;-81
2023/04/22 01:45:45;;;;;;;2.85;1.20;;;20.30;99.90;;;;;;4954409;28;20201;-81
2023/04/22 01:48:16;;;;;;;3.30;1.33;;;20.40;99.90;;;;;;4954235;28;20227;-80
2023/04/22 01:50:47;;;;;;;3.53;1.30;;;20.50;99.90;;;;;;4954729;28;20680;-81
2023/04/22 01:53:18;;;;;;;3.97;1.33;;;20.50;99.90;;;;;;4956822;28;20563;-83
2023/04/22 01:55:51;;;;;;;4.80;1.40;;;20.40;99.90;;;;;;4958721;28;20216;-80
2023/04/22 01:58:22;;;;;;;3.75;1.25;;;20.40;99.90;;;;;;4957719;28;20314;-82
2023/04/22 02:00:54;;;;;;;3.30;1.20;;;20.30;99.90;;;;;;4958663;28;20200;-82
2023/04/22 02:03:25;;;;;;;2.63;1.13;;;20.30;99.90;;;;;;4956950;29;20232;-79
2023/04/22 02:05:56;;;;;;;4.28;1.30;;;20.20;99.90;;;;;;4943725;29;20197;-80
2023/04/22 02:08:27;;;;;;;2.95;1.30;;;20.10;99.90;;;;;;4951897;28;20221;-80
2023/04/22 02:11:00;;;;;;;5.28;1.30;;;20.10;99.90;;;;;;4957389;29;20220;-82
2023/04/22 02:13:38;;;;;;;4.38;1.25;;;20.10;99.90;;;;;;4953357;28;20197;-81
2023/04/22 02:16:10;;;;;;;3.47;1.20;;;20.10;99.90;;;;;;4951224;28;20653;-80
2023/04/22 02:18:41;;;;;;;3.17;1.33;;;20.10;99.90;;;;;;4951767;29;20208;-78
2023/04/22 02:21:12;;;;;;;7.18;1.60;;;20.00;99.90;;;;;;4954237;29;20193;-80
2023/04/22 02:23:43;;;;;;;3.67;1.30;;;20.10;99.90;;;;;;4949895;28;20200;-80
2023/04/22 02:26:16;;;;;;;5.20;1.95;;;20.10;99.90;;;;;;4954556;29;20204;-80
2023/04/22 02:28:47;;;;;;;3.45;1.38;;;20.10;99.90;;;;;;4952911;29;20221;-81
2023/04/22 02:31:18;;;;;;;3.15;1.40;;;20.10;99.90;;;;;;4956403;29;20197;-80
2023/04/22 02:33:49;;;;;;;2.78;1.20;;;20.10;99.90;;;;;;4956818;28;20645;-79
2023/04/22 02:36:20;;;;;;;5.88;1.40;;;20.00;99.90;;;;;;4956016;28;20661;-78
2023/04/22 02:38:52;;;;;;;2.92;1.40;;;20.00;99.90;;;;;;4958031;28;20197;-80
2023/04/22 02:41:25;;;;;;;4.32;1.40;;;20.00;99.90;;;;;;4958291;28;20193;-80
2023/04/22 02:43:56;;;;;;;3.58;1.40;;;20.00;99.90;;;;;;4956996;28;20205;-79
2023/04/22 02:46:27;;;;;;;4.35;1.50;;;20.00;99.90;;;;;;4947799;28;20218;-80
2023/04/22 02:48:58;;;;;;;3.90;1.17;;;20.00;99.90;;;;;;4946448;29;20232;-80
2023/04/22 02:51:29;;;;;;;7.07;1.60;;;20.00;99.90;;;;;;4955221;29;20201;-81
2023/04/22 02:54:01;;;;;;;2.15;1.40;;;20.00;99.90;;;;;;4957014;29;20295;-78
2023/04/22 02:56:34;;;;;;;2.80;1.50;;;20.00;99.90;;;;;;4956624;29;20236;-79
2023/04/22 02:59:05;;;;;;;4.85;1.77;;;19.90;99.90;;;;;;4955212;28;20221;-80
2023/04/22 03:01:36;;;;;;;4.10;1.20;;;19.90;99.90;;;;;;4957545;28;20193;-81
2023/04/22 03:04:07;;;;;;;2.72;1.67;;;19.90;99.90;;;;;;4954958;28;20201;-80
2023/04/22 03:06:38;;;;;;;4.03;1.60;;;19.80;99.90;;;;;;4956624;29;20200;-80
2023/04/22 03:09:09;;;;;;;3.22;1.73;;;19.80;99.90;;;;;;4957369;29;20227;-82
2023/04/22 03:11:42;;;;;;;7.53;2.08;;;19.90;99.90;;;;;;4957400;29;20189;-81
2023/04/22 03:14:13;;;;;;;2.38;1.50;;;19.90;99.90;;;;;;4954298;29;20201;-83
2023/04/22 03:16:44;;;;;;;8.52;2.03;;;19.90;99.90;;;;;;4956607;28;20201;-80
2023/04/22 03:19:16;;;;;;;3.75;1.70;;;19.90;99.90;;;;;;4956529;28;20656;-82
2023/04/22 03:21:47;;;;;;;5.72;1.67;;;20.00;99.90;;;;;;4945767;29;20677;-82
2023/04/22 03:24:18;;;;;;;3.55;1.70;;;20.00;99.90;;;;;;4956276;28;20716;-81
2023/04/22 03:26:51;;;;;;;4.63;1.70;;;20.00;99.90;;;;;;4955865;29;20193;-81
2023/04/22 03:29:22;;;;;;;5.30;1.80;;;20.00;99.90;;;;;;4955409;29;20309;-81
2023/04/22 03:31:53;;;;;;;3.63;2.13;;;20.00;99.90;;;;;;4954184;29;20212;-82
2023/04/22 03:34:24;;;;;;;2.13;1.60;;;20.00;99.90;;;;;;4944572;29;20201;-81
2023/04/22 03:36:55;;;;;;;4.68;1.80;;;20.00;99.90;;;;;;4955643;29;20205;-82
2023/04/22 03:39:26;;;;;;;6.75;2.00;;;20.00;99.90;;;;;;4956687;29;20193;-80
2023/04/22 03:42:00;;;;;;;2.83;2.00;;;20.00;99.90;;;;;;4955563;29;20201;-79
2023/04/22 03:44:31;;;;;;;3.95;1.73;;;20.00;99.90;;;;;;4955681;29;20232;-79
2023/04/22 03:47:02;;;;;;;4.25;1.80;;;20.10;99.90;;;;;;4954670;29;20201;-79
2023/04/22 03:49:33;;;;;;;4.38;1.65;;;20.10;99.90;;;;;;4955625;29;20579;-80
2023/04/22 03:52:04;;;;;;;5.05;2.08;;;20.20;99.90;;;;;;4954382;29;20207;-80
2023/04/22 03:54:35;;;;;;;3.83;1.75;;;20.20;99.90;;;;;;4952853;29;20268;-79
2023/04/22 03:57:08;;;;;;;5.20;1.70;;;20.20;99.90;;;;;;4955071;28;20197;-81
2023/04/22 03:59:39;;;;;;;4.78;1.60;;;20.20;99.90;;;;;;4956832;28;20224;-80
2023/04/22 04:02:10;;;;;;;2.75;1.70;;;20.30;99.90;;;;;;4952695;28;20233;-80
2023/04/22 04:04:41;;;;;;;3.67;1.50;;;20.30;99.90;;;;;;4954694;28;20205;-81
2023/04/22 04:07:13;;;;;;;7.47;1.83;;;20.30;99.90;;;;;;4950463;28;20237;-79
2023/04/22 04:09:44;;;;;;;5.10;1.70;;;20.30;99.90;;;;;;4950743;28;20225;-81
2023/04/22 04:12:17;;;;;;;4.47;1.98;;;20.30;99.90;;;;;;4948378;28;20204;-79
2023/04/22 04:14:48;;;;;;;6.15;1.90;;;20.30;99.90;;;;;;4949954;28;20205;-81
2023/04/22 04:17:19;;;;;;;5.60;2.00;;;20.30;99.90;;;;;;4951907;28;20204;-80
2023/04/22 04:19:50;;;;;;;5.80;2.20;;;20.20;99.90;;;;;;4954992;29;20197;-78
2023/04/22 04:22:21;;;;;;;4.13;2.03;;;20.20;99.90;;;;;;4956180;29;20240;-81
2023/04/22 04:24:54;;;;;;;5.32;2.22;;;20.20;99.90;;;;;;4956286;29;20189;-82
2023/04/22 04:27:27;;;;;;;6.28;2.10;;;20.10;99.90;;;;;;4955658;29;20236;-81
2023/04/22 04:29:58;;;;;;;3.97;1.83;;;20.10;99.90;;;;;;4953023;29;20221;-80
2023/04/22 04:32:33;;;;;;;6.30;2.10;;;20.00;99.90;;;;;;4955092;29;20216;-81
2023/04/22 04:35:05;;;;;;;4.32;2.00;;;20.00;99.90;;;;;;4955233;29;20731;-79
2023/04/22 04:37:39;;;;;;;8.23;1.88;;;20.00;99.90;;;;;;4955799;28;20193;-80
2023/04/22 04:40:11;;;;;;;2.92;1.85;;;20.00;99.90;;;;;;4952419;28;20251;-79
2023/04/22 04:42:44;;;;;;;5.35;2.00;;;19.90;99.90;;;;;;4954634;29;20271;-81
2023/04/22 04:45:15;;;;;;;3.50;1.80;;;19.90;99.90;;;;;;4955510;28;20223;-81
2023/04/22 04:47:46;;;;;;;6.63;2.20;;;19.90;99.90;;;;;;4954383;28;20558;-80
2023/04/22 04:50:17;;;;;;;4.78;2.20;;;19.90;99.90;;;;;;4954611;28;20696;-78
2023/04/22 04:52:49;;;;;;;4.40;1.90;;;19.90;99.90;;;;;;4955678;28;20193;-81
2023/04/22 04:55:20;;;;;;;5.10;2.28;;;19.90;99.90;;;;;;4954653;28;20248;-82
2023/04/22 04:57:53;;;;;;;3.75;1.90;;;19.80;99.90;;;;;;4953882;28;20204;-80
2023/04/22 05:00:24;;;;;;;5.95;2.00;;;19.80;99.90;;;;;;4953323;28;20201;-83
2023/04/22 05:02:55;;;;;;;6.35;2.00;;;19.80;99.90;;;;;;4952754;28;20229;-81
2023/04/22 05:05:27;;;;;;;4.63;2.00;;;19.80;99.90;;;;;;4951966;28;20201;-80
2023/04/22 05:07:58;;;;;;;7.40;2.10;;;19.80;99.90;;;;;;4955142;28;20197;-81
2023/04/22 05:10:29;;;;;;;4.93;2.10;;;19.80;99.90;;;;;;4955134;28;20228;-82
2023/04/22 05:13:02;;;;;;;6.05;2.25;;;19.80;99.90;;;;;;4955131;29;20193;-79
2023/04/22 05:15:33;;;;;;;6.18;2.17;;;19.80;99.90;;;;;;4955264;29;20236;-81
2023/04/22 05:18:04;;;;;;;3.85;2.00;;;19.80;99.90;;;;;;4955505;29;20193;-83
2023/04/22 05:20:35;;;;;;;5.60;2.20;;;19.80;99.90;;;;;;4955187;29;20598;-81
2023/04/22 05:23:06;;;;;;;5.65;2.08;;;19.70;99.90;;;;;;4955176;29;20189;-80
2023/04/22 05:25:37;;;;;;;4.57;2.03;;;19.70;99.90;;;;;;4954768;28;20204;-80
2023/04/22 05:28:10;;;;;;;3.53;1.90;;;19.70;99.90;;;;;;4954722;29;20633;-81
2023/04/22 05:30:42;;;;;;;4.45;2.30;;;19.70;99.90;;;;;;4955180;28;20225;-82
2023/04/22 05:33:13;;;;;;;3.42;2.20;;;19.60;99.90;;;;;;4955130;29;20228;-82
2023/04/22 05:35:44;;;;;;;5.40;2.20;;;19.60;99.90;;;;;;4955027;29;20193;-81
2023/04/22 05:38:15;;;;;;;3.20;2.05;;;19.60;99.90;;;;;;4955045;29;20196;-81
2023/04/22 05:40:46;;;;;;;4.75;2.45;;;19.60;99.90;;;;;;4955098;29;20192;-81
2023/04/22 05:43:19;;;;;;;4.68;2.50;;;19.60;99.90;;;;;;4954914;29;20206;-81
2023/04/22 05:45:50;;;;;;;6.35;2.33;;;19.60;99.90;;;;;;4948167;28;20201;-81
2023/04/22 05:48:21;;;;;;;3.50;2.20;;;19.50;99.90;;;;;;4935850;29;20190;-82
2023/04/22 05:50:53;;;;;;;3.92;1.90;;;19.50;99.90;;;;;;4935957;29;20218;-82
2023/04/22 05:53:24;;;;;;;5.57;2.45;;;19.50;99.90;;;;;;4935975;29;20733;-82
2023/04/22 05:55:55;;;;;;;4.20;2.15;;;19.40;99.90;;;;;;4935860;29;20665;-82
2023/04/22 05:58:28;;;;;;;5.03;2.47;;;19.40;99.90;;;;;;4935689;29;20236;-82
2023/04/22 06:00:59;;;;;;;3.25;2.15;;;19.40;99.90;;;;;;4936088;29;20201;-81
2023/04/22 06:03:30;;;;;;;4.97;2.17;;;19.40;99.90;;;;;;4935785;29;20237;-80
2023/04/22 06:06:01;;;;;;;3.28;2.30;;;19.40;99.90;;;;;;4935831;29;20205;-78
2023/04/22 06:08:33;;;;;;;2.90;2.10;;;19.30;99.90;;;;;;4936182;29;20193;-81
2023/04/22 06:11:04;;;;;;;3.63;2.20;;;19.30;99.90;;;;;;4944691;29;20225;-81
2023/04/22 06:13:37;;;;;;;6.32;2.55;;;19.30;99.90;;;;;;4954348;28;20196;-81
2023/04/22 06:16:09;;;;;;;4.35;2.53;;;19.30;99.90;;;;;;4953747;28;20190;-81
2023/04/22 06:18:42;;;;;;;4.68;2.45;;;19.20;99.90;;;;;;4954300;29;20904;-81
2023/04/22 06:21:13;;;;;;;6.88;2.88;;;19.30;99.90;;;;;;4954886;28;20201;-81
2023/04/22 06:23:44;;;;;;;5.38;2.70;;;19.20;99.90;;;;;;4954640;29;20189;-80
2023/04/22 06:26:16;;;;;;;6.15;2.83;;;19.20;99.90;;;;;;4954616;29;20193;-81
2023/04/22 06:28:49;;;;;;;4.80;2.50;;;19.20;99.90;;;;;;4954765;29;20668;-80
2023/04/22 06:31:20;;;;;;;4.03;2.60;;;19.20;99.90;;;;;;4954632;29;20586;-80
2023/04/22 06:33:51;;;;;;;4.10;2.20;;;19.20;99.90;;;;;;4954616;29;20201;-80
2023/04/22 06:36:22;;;;;;;4.50;2.60;;;19.20;99.90;;;;;;4954741;29;20193;-79
2023/04/22 06:38:53;;;;;;;6.10;2.45;;;19.20;99.90;;;;;;4953597;28;20204;-80
2023/04/22 06:41:25;;;;;;;6.32;2.65;;;19.10;99.90;;;;;;4954545;29;20211;-80
2023/04/22 06:43:58;;;;;;;5.55;2.78;;;19.10;99.90;;;;;;4956753;29;20209;-80
2023/04/22 06:46:29;;;;;;;4.82;2.72;;;19.10;99.90;;;;;;4957596;29;20208;-78
2023/04/22 06:49:00;;;;;;;6.57;2.58;;;19.10;99.90;;;;;;4942377;29;20208;-80
2023/04/22 06:51:31;;;;;;;5.28;2.78;;;19.10;99.90;;;;;;4956525;29;20231;-80
2023/04/22 06:54:02;;;;;;;6.60;3.15;;;19.10;99.90;;;;;;4956239;29;20201;-79
2023/04/22 06:56:33;;;;;;;5.80;2.90;;;19.00;99.90;;;;;;4955311;29;20232;-79
2023/04/22 06:59:07;;;;;;;5.88;3.17;;;19.10;99.90;;;;;;4956120;29;20232;-79
2023/04/22 07:01:38;;;;;;;7.30;3.05;;;19.10;99.90;;;;;;4955514;28;20205;-79
2023/04/22 07:04:09;;;;;;;5.70;2.90;;;19.00;99.90;;;;;;4947196;29;20197;-80
2023/04/22 07:06:40;;;;;;;6.55;3.03;;;19.00;99.90;;;;;;4955907;28;20193;-80
2023/04/22 07:09:11;;;;;;;5.38;2.70;;;19.00;99.90;;;;;;4956326;29;20591;-78
2023/04/22 07:11:42;;;;;;;7.63;2.83;;;19.00;99.90;;;;;;4951931;29;20339;-79
2023/04/22 07:14:15;;;;;;;5.63;2.80;;;19.00;99.90;;;;;;4954792;29;20264;-80
2023/04/22 07:16:46;;;;;;;7.10;3.10;;;18.90;99.90;;;;;;4955525;29;20197;-80
2023/04/22 07:19:17;;;;;;;6.18;2.83;;;18.90;99.90;;;;;;4957465;28;20209;-80
2023/04/22 07:21:48;;;;;;;6.63;2.80;;;18.90;99.90;;;;;;4957278;28;20193;-79
2023/04/22 07:24:19;;;;;;;3.70;2.40;;;18.90;99.90;;;;;;4956477;28;20189;-80
2023/04/22 07:26:51;;;;;;;6.18;2.83;;;18.90;99.90;;;;;;4956015;28;20197;-80
2023/04/22 07:29:24;;;;;;;5.13;2.25;;;18.90;99.90;;;;;;4956615;28;20285;-79
2023/04/22 07:31:55;;;;;;;5.28;2.40;;;18.80;99.90;;;;;;4957145;29;20585;-80
2023/04/22 07:34:26;;;;;;;4.13;2.17;;;18.80;99.90;;;;;;4955766;29;20656;-80
2023/04/22 07:36:57;;;;;;;5.15;2.15;;;18.80;99.90;;;;;;4946700;29;20220;-80
2023/04/22 07:39:28;;;;;;;6.05;2.35;;;18.80;99.90;;;;;;4956807;29;20193;-80
2023/04/22 07:41:59;;;;;;;4.88;2.28;;;18.70;99.90;;;;;;4954477;29;20228;-80
2023/04/22 07:44:32;;;;;;;6.13;2.78;;;18.70;99.90;;;;;;4956520;28;20208;-80
2023/04/22 07:47:03;;;;;;;6.82;3.40;;;18.70;99.90;;;;;;4955725;29;20197;-80
2023/04/22 07:49:34;;;;;;;5.30;3.00;;;18.70;99.90;;;;;;4956146;28;20200;-80
2023/04/22 07:52:05;;;;;;;4.22;2.60;;;18.70;99.90;;;;;;4955771;29;20591;-80
2023/04/22 07:54:36;;;;;;;4.13;2.72;;;18.70;99.90;;;;;;4955685;29;20517;-80
2023/04/22 07:57:07;;;;;;;5.20;3.08;;;18.80;99.90;;;;;;4955675;28;20200;-80
2023/04/22 07:59:40;;;;;;;5.50;3.00;;;18.80;99.90;;;;;;4955596;28;20224;-80
2023/04/22 08:02:12;;;;;;;6.88;3.15;;;18.70;99.90;;;;;;4950994;28;20262;-79
2023/04/22 08:04:43;;;;;;;4.82;2.67;;;18.70;99.90;;;;;;4942883;29;20255;-80
2023/04/22 08:07:14;;;;;;;5.47;3.10;;;18.70;99.90;;;;;;4955103;28;20209;-79
2023/04/22 08:09:45;;;;;;;5.72;3.03;;;18.70;99.90;;;;;;4952268;28;20205;-80
2023/04/22 08:12:16;;;;;;;7.60;3.40;;;18.70;99.90;;;;;;4950816;29;20904;-81
2023/04/22 08:14:49;;;;;;;8.55;3.40;;;18.70;99.90;;;;;;4955187;29;20212;-80
2023/04/22 08:17:21;;;;;;;7.70;3.08;;;18.70;99.90;;;;;;4955981;29;20252;-79
2023/04/22 08:19:52;;;;;;;4.78;3.38;;;18.70;99.90;;;;;;4955610;29;20211;-80
2023/04/22 08:22:24;;;;;;;4.55;3.30;;;18.70;99.90;;;;;;4956127;29;20661;-80
2023/04/22 08:24:55;;;;;;;4.43;3.10;;;18.70;99.90;;;;;;4955315;29;20197;-80
2023/04/22 08:27:26;;;;;;;7.38;3.55;;;18.70;99.90;;;;;;4954489;28;20196;-80
2023/04/22 08:29:59;;;;;;;7.95;3.42;;;18.70;99.90;;;;;;4952339;29;20208;-80
2023/04/22 08:32:30;;;;;;;6.40;3.25;;;18.70;99.90;;;;;;4941970;29;20209;-80
2023/04/22 08:35:01;;;;;;;8.32;3.50;;;18.70;99.90;;;;;;4953145;28;20214;-80
2023/04/22 08:37:32;;;;;;;7.53;3.50;;;18.70;99.90;;;;;;4954947;28;20745;-81
2023/04/22 08:40:03;;;;;;;5.03;3.30;;;18.70;99.90;;;;;;4952783;29;20623;-80
2023/04/22 08:42:35;;;;;;;9.48;3.80;;;18.70;99.90;;;;;;4949698;29;20288;-80
2023/04/22 08:45:08;;;;;;;6.65;3.90;;;18.70;99.90;;;;;;4954636;28;20201;-79
2023/04/22 08:47:41;;;;;;;6.68;3.83;;;18.70;99.90;;;;;;4950401;28;20264;-80
2023/04/22 08:50:12;;;;;;;5.78;3.63;;;18.70;99.90;;;;;;4953966;28;20296;-81
2023/04/22 08:52:45;;;;;;;7.57;3.83;;;18.70;99.90;;;;;;4955676;28;20201;-79
2023/04/22 08:55:16;;;;;;;8.02;4.20;;;18.60;99.90;;;;;;4954097;28;20197;-80
2023/04/22 08:57:47;;;;;;;8.60;3.92;;;18.60;99.90;;;;;;4951245;28;20251;-80
2023/04/22 09:00:21;;;;;;;8.15;3.78;;;18.70;99.90;;;;;;4952857;28;20661;-78
2023/04/22 09:02:53;;;;;;;7.43;3.63;;;18.60;99.90;;;;;;4949955;28;20236;-80
2023/04/22 09:05:26;;;;;;;9.20;4.50;;;18.60;99.90;;;;;;4952771;29;20208;-79
2023/04/22 09:07:58;;;;;;;8.30;4.28;;;18.60;99.90;;;;;;4950278;28;20208;-80
2023/04/22 09:10:29;;;;;;;6.20;3.92;;;18.70;99.90;;;;;;4954051;28;20193;-80
2023/04/22 09:13:00;;;;;;;6.65;4.60;;;18.70;99.90;;;;;;4953741;28;20201;-80
2023/04/22 09:15:33;;;;;;;6.05;3.88;;;18.70;99.90;;;;;;4954538;28;20196;-79
2023/04/22 09:18:10;;;;;;;6.47;4.10;;;18.70;99.90;;;;;;4953423;28;20208;-79
2023/04/22 09:20:45;;;;;;;5.82;3.92;;;18.70;99.90;;;;;;4950590;29;20200;-79
2023/04/22 09:23:16;;;;;;;6.03;3.88;;;18.70;99.90;;;;;;4952928;28;20204;-80
2023/04/22 09:25:48;;;;;;;7.45;3.67;;;18.70;99.90;;;;;;4954991;28;20201;-80
2023/04/22 09:28:21;;;;;;;6.05;3.92;;;18.70;99.90;;;;;;4952656;28;20193;-80
2023/04/22 09:30:54;;;;;;;7.22;3.88;;;18.60;99.90;;;;;;4951604;29;20212;-80
2023/04/22 09:33:28;;;;;;;5.05;3.50;;;18.60;99.90;;;;;;4953738;29;20209;-80
2023/04/22 09:35:59;;;;;;;10.38;4.05;;;18.60;99.90;;;;;;4949472;28;20683;-80
2023/04/22 09:38:33;;;;;;;8.30;4.65;;;18.60;99.90;;;;;;4952496;29;20205;-80
2023/04/22 09:41:11;;;;;;;6.13;4.20;;;18.60;99.90;;;;;;4954709;29;20216;-81
2023/04/22 09:43:42;;;;;;;7.10;4.20;;;18.50;99.90;;;;;;4954030;28;20212;-80
2023/04/22 09:46:15;;;;;;;6.32;4.10;;;18.50;99.90;;;;;;4942351;28;20201;-80
2023/04/22 09:48:46;;;;;;;6.47;3.90;;;18.50;99.90;;;;;;4954723;28;20200;-80
2023/04/22 09:51:19;;;;;;;8.07;4.45;;;18.50;99.90;;;;;;4951167;28;20232;-81
2023/04/22 09:54:02;;;;;;;10.90;5.00;;;18.50;99.90;;;;;;4951622;28;20719;-80
2023/04/22 09:56:50;;;;;;;8.18;4.47;;;18.50;99.90;;;;;;4954526;28;20296;-79
2023/04/22 09:59:25;;;;;;;7.63;4.70;;;18.50;99.90;;;;;;4948169;28;20705;-80
2023/04/22 10:02:03;;;;;;;7.68;4.15;;;18.50;99.90;;;;;;4947542;28;20597;-80
2023/04/22 10:04:34;;;;;;;5.90;4.57;;;18.50;99.90;;;;;;4952054;29;20208;-81
2023/04/22 10:07:05;;;;;;;8.32;4.55;;;18.50;99.90;;;;;;4953756;28;20209;-80
2023/04/22 10:09:36;;;;;;;7.50;4.97;;;18.50;99.90;;;;;;4954472;28;20574;-79
2023/04/22 10:12:08;;;;;;;11.73;4.43;;;18.50;99.90;;;;;;4952901;28;20221;-80
2023/04/22 10:14:39;;;;;;;8.30;5.25;;;18.50;99.90;;;;;;4958372;29;20208;-79
2023/04/22 10:17:14;;;;;;;8.23;4.97;;;18.50;99.90;;;;;;4955528;29;20217;-80
2023/04/22 10:19:48;;;;;;;9.80;4.85;;;18.50;99.90;;;;;;4958231;29;20192;-79
2023/04/22 10:22:19;;;;;;;7.38;4.57;;;18.50;99.90;;;;;;4955170;28;20204;-80
2023/04/22 10:24:54;;;;;;;5.88;4.28;;;18.50;99.90;;;;;;4956925;29;20204;-80
2023/04/22 10:27:25;;;;;;;6.35;4.28;;;18.50;99.90;;;;;;4958445;28;20200;-79
2023/04/22 10:29:59;;;;;;;9.05;4.85;;;18.50;99.90;;;;;;4956950;29;20570;-81
2023/04/22 10:32:32;;;;;;;7.22;4.88;;;18.50;99.90;;;;;;4956470;28;20232;-80
2023/04/22 10:35:16;;;;;;;7.60;5.38;;;18.50;99.90;;;;;;4956223;28;20204;-80
2023/04/22 10:37:48;;;;;;;8.35;5.28;;;18.50;99.90;;;;;;4956945;29;20193;-80
2023/04/22 10:40:21;;;;;;;10.65;5.10;;;18.50;99.90;;;;;;4951746;29;20208;-78
2023/04/22 10:42:55;;;;;;;10.02;5.65;;;18.50;99.90;;;;;;4954684;29;20209;-80
2023/04/22 10:45:28;;;;;;;7.38;5.18;;;18.50;99.90;;;;;;4952178;28;20205;-80
2023/04/22 10:48:05;;;;;;;9.48;5.25;;;18.50;99.90;;;;;;4957294;29;20544;-81
2023/04/22 10:50:37;;;;;;;9.70;5.10;;;18.50;99.90;;;;;;4957274;29;20193;-80
2023/04/22 10:53:45;;;;;;;7.80;5.05;;;18.50;99.90;;;;;;4957713;28;20228;-80
2023/04/22 10:56:20;;;;;;;8.35;5.13;;;18.50;99.90;;;;;;4943805;29;20227;-80
2023/04/22 10:58:52;;;;;;;12.70;6.30;;;18.50;99.90;;;;;;4957621;28;20217;-80
2023/04/22 11:01:23;;;;;;;9.35;5.43;;;18.50;99.90;;;;;;4972582;28;20207;-80
2023/04/22 11:04:16;;;;;;;12.40;5.75;;;18.60;99.90;;;;;;4959770;28;20240;-80
2023/04/22 11:06:48;;;;;;;8.23;5.30;;;18.50;99.90;;;;;;4957241;29;20669;-78
2023/04/22 11:09:20;;;;;;;8.80;5.70;;;18.50;99.90;;;;;;4957564;29;20193;-81
2023/04/22 11:11:51;;;;;;;8.55;5.68;;;18.50;99.90;;;;;;4957537;28;20275;-81
2023/04/22 11:14:24;;;;;;;10.13;6.05;;;18.50;99.90;;;;;;4957157;29;20211;-80
2023/04/22 11:16:56;;;;;;;8.70;5.95;;;18.50;99.90;;;;;;4957340;28;20193;-81
2023/04/22 11:19:30;;;;;;;8.48;5.53;;;18.50;99.90;;;;;;4957638;28;20193;-81
2023/04/22 11:22:02;;;;;;;9.52;5.80;;;18.50;99.90;;;;;;4963179;28;20192;-81
2023/04/22 11:24:33;;;;;;;10.82;6.43;;;18.50;99.90;;;;;;4975434;28;20636;-81
2023/04/22 11:27:04;;;;;;;12.73;5.47;;;18.50;99.90;;;;;;4976585;28;20201;-80
2023/04/22 11:29:35;;;;;;;9.32;6.03;;;18.50;99.90;;;;;;4960095;28;20672;-80
2023/04/22 11:32:07;;;;;;;12.07;5.72;;;18.50;99.90;;;;;;4956963;29;20590;-80
2023/04/22 11:34:40;;;;;;;11.65;6.15;;;18.50;99.90;;;;;;4957490;28;20200;-79
2023/04/22 11:37:11;;;;;;;9.45;5.30;;;18.50;99.90;;;;;;4956782;29;20185;-80
2023/04/22 11:39:42;;;;;;;7.47;5.55;;;18.50;99.90;;;;;;4956505;29;20558;-80
2023/04/22 11:42:15;;;;;;;7.82;5.72;;;18.50;99.90;;;;;;4956838;29;20201;-80
2023/04/22 11:44:48;;;;;;;12.10;5.72;;;18.50;99.90;;;;;;4958133;28;20199;-81
2023/04/22 11:47:19;;;;;;;8.18;5.53;;;18.40;99.90;;;;;;4970853;28;20212;-80
2023/04/22 11:50:03;;;;;;;10.55;6.18;;;18.40;99.90;;;;;;4957234;28;20225;-79
2023/04/22 11:52:46;;;;;;;8.32;5.20;;;18.40;99.90;;;;;;4956651;29;20221;-80
2023/04/22 11:55:18;;;;;;;9.45;5.70;;;18.40;99.90;;;;;;4956830;28;20197;-80
2023/04/22 11:57:55;;;;;;;9.60;6.05;;;18.40;99.90;;;;;;4956660;28;20228;-80
2023/04/22 12:00:30;;;;;;;12.40;5.90;;;18.30;99.90;;;;;;4956577;28;20193;-80
2023/04/22 12:03:06;;;;;;;10.35;5.82;;;18.30;99.90;;;;;;4956330;29;20236;-80
2023/04/22 12:05:41;;;;;;;11.60;6.47;;;18.30;99.90;;;;;;4955944;29;20247;-79
2023/04/22 12:08:13;;;;;;;9.45;6.18;;;18.30;99.90;;;;;;4956599;28;20199;-80
2023/04/22 12:10:48;;;;;;;11.23;5.72;;;18.30;99.90;;;;;;4956375;28;20201;-80
2023/04/22 12:13:24;;;;;;;9.93;5.63;;;18.30;99.90;;;;;;4956020;29;20577;-78
2023/04/22 12:15:57;;;;;;;9.35;5.53;;;18.20;99.90;;;;;;4956183;29;20204;-78
2023/04/22 12:18:35;;;;;;;8.27;5.40;;;18.20;99.90;;;;;;4956364;29;20197;-79
2023/04/22 12:21:12;;;;;;;7.68;5.90;;;18.10;99.90;;;;;;4955826;28;20573;-79
2023/04/22 12:23:47;;;;;;;11.07;5.70;;;18.10;99.90;;;;;;4955159;29;20200;-80
2023/04/22 12:26:19;;;;;;;9.88;5.78;;;18.00;99.90;;;;;;4954132;29;20216;-80
2023/04/22 12:28:51;;;;;;;9.85;6.10;;;18.00;99.90;;;;;;4955172;29;20211;-80
2023/04/22 12:31:23;;;;;;;10.70;6.20;;;18.00;99.90;;;;;;4955297;29;20259;-79
2023/04/22 12:33:54;;;;;;;12.05;6.43;;;18.00;99.90;;;;;;4954876;29;20196;-79
2023/04/22 12:36:27;;;;;;;8.30;5.47;;;17.90;99.90;;;;;;4947779;29;20673;-79
2023/04/22 12:38:58;;;;;;;8.23;5.75;;;17.90;99.90;;;;;;4953848;29;20255;-80
2023/04/22 12:41:29;;;;;;;9.85;5.57;;;17.90;99.90;;;;;;4953399;29;20609;-79
2023/04/22 12:44:00;;;;;;;7.50;4.93;;;17.90;99.90;;;;;;4953107;29;20204;-80
2023/04/22 12:46:32;;;;;;;9.38;5.75;;;17.90;99.90;;;;;;4954424;29;20201;-80
2023/04/22 12:49:03;;;;;;;8.23;5.50;;;17.90;99.90;;;;;;4955317;29;20200;-80
2023/04/22 12:51:36;;;;;;;7.80;5.32;;;17.90;99.90;;;;;;4953559;29;20601;-79
2023/04/22 12:54:07;;;;;;;8.38;5.40;;;17.90;99.90;;;;;;4953702;29;20653;-79
2023/04/22 12:56:38;;;;;;;7.90;5.40;;;17.90;99.90;;;;;;4954806;28;20204;-80
2023/04/22 12:59:09;;;;;;;8.50;5.30;;;17.90;99.90;;;;;;4954412;28;20225;-80
2023/04/22 13:01:40;;;;;;;9.02;5.60;;;17.90;99.90;;;;;;4955364;28;20645;-80
2023/04/22 13:04:11;;;;;;;9.25;5.70;;;17.90;99.90;;;;;;4955669;29;20657;-80
2023/04/22 13:06:44;;;;;;;9.48;6.07;;;17.90;99.90;;;;;;4936519;29;20201;-79
2023/04/22 13:09:15;;;;;;;11.23;5.93;;;17.90;99.90;;;;;;4942622;29;20196;-80
2023/04/22 13:11:48;;;;;;;9.85;6.40;;;17.90;99.90;;;;;;4955160;28;20571;-80